Time;durP1;ratioP1;P1;durP2;ratioP2;P2;SDS_P1;SDS_P2;PMS_P1;PMS_P2;Temp;Humidity;BMP_temperature;BMP_pressure;BME280_temperature;BME280_humidity;BME280_pressure;Samples;Min_cycle;Max_cycle;Signal;HPM_P1;HPM_P2
2021/05/03 00:01:39;;;;;;;3.38;1.90;;;17.40;51.00;;;;;;6245404;23;20025;-78
2021/05/03 00:04:05;;;;;;;4.53;2.00;;;17.40;51.00;;;;;;6245723;23;20000;-76
2021/05/03 00:06:31;;;;;;;4.75;2.13;;;17.40;51.00;;;;;;6245596;23;20062;-76
2021/05/03 00:08:57;;;;;;;3.28;1.70;;;17.40;51.00;;;;;;6245253;23;20016;-79
2021/05/03 00:11:22;;;;;;;2.97;1.77;;;17.40;50.90;;;;;;6245660;23;20046;-78
2021/05/03 00:13:48;;;;;;;6.35;2.40;;;17.30;50.90;;;;;;6245431;23;20081;-78
2021/05/03 00:16:13;;;;;;;3.03;1.95;;;17.30;50.90;;;;;;6245298;23;20337;-79
2021/05/03 00:18:39;;;;;;;3.03;1.95;;;17.30;50.80;;;;;;6245092;23;20329;-78
2021/05/03 00:21:05;;;;;;;3.42;2.05;;;17.30;50.80;;;;;;6245873;23;20007;-78
2021/05/03 00:23:30;;;;;;;4.00;1.67;;;17.30;50.80;;;;;;6245278;23;20007;-79
2021/05/03 00:25:56;;;;;;;4.75;2.05;;;17.30;50.70;;;;;;6245416;23;20008;-78
2021/05/03 00:28:21;;;;;;;4.13;1.80;;;17.20;50.70;;;;;;6245182;23;20039;-79
2021/05/03 00:30:47;;;;;;;4.28;2.08;;;17.20;50.70;;;;;;6245164;23;20022;-79
2021/05/03 00:33:13;;;;;;;3.03;1.90;;;17.20;50.70;;;;;;6245125;23;20004;-79
2021/05/03 00:35:38;;;;;;;3.22;1.63;;;17.20;50.70;;;;;;6245459;23;20448;-79
2021/05/03 00:38:05;;;;;;;3.42;2.00;;;17.20;50.80;;;;;;6244282;23;20420;-79
2021/05/03 00:40:32;;;;;;;2.97;1.95;;;17.10;50.70;;;;;;6245131;23;20436;-79
2021/05/03 00:42:57;;;;;;;2.83;2.10;;;17.10;50.70;;;;;;6245142;23;20001;-80
2021/05/03 00:45:23;;;;;;;3.28;1.70;;;17.00;50.60;;;;;;6243474;23;20062;-79
2021/05/03 00:47:50;;;;;;;4.22;2.22;;;17.10;50.70;;;;;;6243711;23;20008;-77
2021/05/03 00:50:18;;;;;;;2.75;1.95;;;17.00;50.60;;;;;;6245215;23;20087;-78
2021/05/03 00:52:45;;;;;;;3.25;2.25;;;17.00;50.60;;;;;;6245044;23;20071;-78
2021/05/03 00:55:12;;;;;;;3.58;1.83;;;17.00;50.60;;;;;;6245293;23;20004;-79
2021/05/03 00:57:39;;;;;;;4.00;2.35;;;17.00;50.70;;;;;;6245169;23;20354;-77
2021/05/03 01:00:07;;;;;;;3.58;1.80;;;16.90;50.60;;;;;;6245289;23;20004;-77
2021/05/03 01:02:33;;;;;;;3.70;2.40;;;16.90;50.60;;;;;;6244767;23;20067;-78
2021/05/03 01:04:58;;;;;;;4.65;2.42;;;16.90;50.60;;;;;;6245170;23;20031;-78
2021/05/03 01:07:24;;;;;;;2.90;1.85;;;16.90;50.60;;;;;;6244863;23;20499;-78
2021/05/03 01:09:53;;;;;;;3.08;2.10;;;16.90;50.50;;;;;;6245011;23;20004;-78
2021/05/03 01:12:18;;;;;;;4.15;2.50;;;16.90;50.60;;;;;;6244888;23;19996;-78
2021/05/03 01:14:44;;;;;;;3.80;2.05;;;16.90;50.50;;;;;;6244573;23;20010;-78
2021/05/03 01:17:10;;;;;;;4.25;2.28;;;16.90;50.50;;;;;;6244978;23;20007;-74
2021/05/03 01:19:35;;;;;;;4.50;2.60;;;16.80;50.50;;;;;;6245150;23;20023;-78
2021/05/03 01:22:01;;;;;;;5.70;2.45;;;16.80;50.60;;;;;;6244268;23;20008;-78
2021/05/03 01:24:27;;;;;;;4.18;2.15;;;16.80;50.60;;;;;;6244831;23;20054;-78
2021/05/03 01:26:52;;;;;;;5.63;2.28;;;16.80;50.50;;;;;;6244777;23;20050;-78
2021/05/03 01:29:18;;;;;;;3.92;2.28;;;16.80;50.50;;;;;;6244508;23;20008;-78
2021/05/03 01:31:48;;;;;;;3.47;2.00;;;16.80;50.40;;;;;;6244488;23;20054;-77
2021/05/03 01:34:14;;;;;;;3.60;2.22;;;16.80;50.50;;;;;;6244853;23;20010;-78
2021/05/03 01:36:41;;;;;;;4.47;2.30;;;16.70;50.40;;;;;;6243574;23;20039;-78
2021/05/03 01:39:13;;;;;;;2.95;2.22;;;16.70;50.40;;;;;;6244957;23;20007;-77
2021/05/03 01:41:39;;;;;;;3.92;2.38;;;16.70;50.40;;;;;;6245116;23;20001;-78
2021/05/03 01:44:07;;;;;;;3.50;2.20;;;16.70;50.40;;;;;;6244576;23;20000;-78
2021/05/03 01:46:35;;;;;;;2.97;2.10;;;16.70;50.40;;;;;;6244710;23;20023;-77
2021/05/03 01:49:03;;;;;;;4.53;2.40;;;16.70;50.40;;;;;;6242945;23;20027;-78
2021/05/03 01:51:31;;;;;;;3.22;2.10;;;16.60;50.40;;;;;;6244569;23;20000;-77
2021/05/03 01:53:57;;;;;;;4.13;2.42;;;16.60;50.40;;;;;;6244501;23;20000;-77
2021/05/03 01:56:26;;;;;;;3.08;2.40;;;16.60;50.40;;;;;;6244510;23;20329;-78
2021/05/03 01:58:53;;;;;;;4.63;2.72;;;16.60;50.50;;;;;;6244144;23;20079;-77
2021/05/03 02:01:20;;;;;;;3.35;2.50;;;16.50;50.40;;;;;;6243078;23;20364;-78
2021/05/03 02:03:46;;;;;;;5.68;3.10;;;16.50;50.40;;;;;;6244358;23;20027;-77
2021/05/03 02:06:15;;;;;;;5.50;2.83;;;16.50;50.40;;;;;;6242977;23;20004;-78
2021/05/03 02:08:41;;;;;;;3.47;2.55;;;16.60;50.40;;;;;;6244473;23;20352;-78
2021/05/03 02:11:07;;;;;;;4.15;2.67;;;16.50;50.40;;;;;;6244085;23;20023;-79
2021/05/03 02:13:34;;;;;;;3.83;2.33;;;16.50;50.40;;;;;;6244549;23;20004;-79
2021/05/03 02:16:00;;;;;;;4.28;2.67;;;16.50;50.30;;;;;;6244350;23;20430;-79
2021/05/03 02:18:26;;;;;;;5.13;2.53;;;16.40;50.30;;;;;;6244339;23;20019;-78
2021/05/03 02:20:51;;;;;;;5.03;2.70;;;16.40;50.40;;;;;;6244364;23;19996;-77
2021/05/03 02:23:17;;;;;;;4.40;2.60;;;16.40;50.40;;;;;;6243955;23;20011;-78
2021/05/03 02:25:43;;;;;;;4.22;2.53;;;16.40;50.40;;;;;;6244444;23;20071;-77
2021/05/03 02:28:10;;;;;;;2.95;1.90;;;16.40;50.90;;;;;;6244659;23;20005;-77
2021/05/03 02:30:36;;;;;;;5.05;2.85;;;16.40;50.40;;;;;;6244372;23;20015;-78
2021/05/03 02:33:02;;;;;;;5.68;2.50;;;16.40;50.40;;;;;;6242337;23;20004;-78
2021/05/03 02:35:28;;;;;;;4.30;2.60;;;16.40;50.30;;;;;;6244300;23;20011;-78
2021/05/03 02:37:57;;;;;;;4.43;3.22;;;16.40;50.40;;;;;;6244038;23;20432;-77
2021/05/03 02:40:24;;;;;;;4.07;2.70;;;16.40;50.40;;;;;;6243930;23;20051;-79
2021/05/03 02:42:55;;;;;;;5.63;2.95;;;16.40;50.40;;;;;;6244485;23;20004;-79
2021/05/03 02:45:22;;;;;;;5.15;2.60;;;16.30;50.30;;;;;;6244245;23;20528;-79
2021/05/03 02:47:48;;;;;;;4.70;2.65;;;16.30;50.30;;;;;;6244006;23;20000;-78
2021/05/03 02:50:15;;;;;;;4.07;2.95;;;16.30;50.40;;;;;;6244480;23;20006;-79
2021/05/03 02:52:42;;;;;;;4.57;2.47;;;16.30;50.50;;;;;;6244413;23;20000;-80
2021/05/03 02:55:10;;;;;;;4.53;3.05;;;16.30;50.40;;;;;;6244171;23;20004;-78
2021/05/03 02:57:36;;;;;;;4.82;2.67;;;16.30;50.40;;;;;;6244060;23;20000;-79
2021/05/03 03:00:04;;;;;;;3.83;2.40;;;16.30;50.40;;;;;;6244347;23;20067;-79
2021/05/03 03:02:30;;;;;;;4.55;2.83;;;16.30;50.50;;;;;;6243856;23;20008;-78
2021/05/03 03:04:56;;;;;;;4.95;2.90;;;16.20;51.00;;;;;;6243877;23;20027;-78
2021/05/03 03:07:21;;;;;;;4.88;2.50;;;16.20;50.50;;;;;;6243813;23;20001;-78
2021/05/03 03:09:47;;;;;;;4.75;2.67;;;16.20;50.40;;;;;;6244210;23;20027;-77
2021/05/03 03:12:12;;;;;;;6.00;2.90;;;16.20;50.50;;;;;;6244548;23;20332;-79
2021/05/03 03:14:38;;;;;;;5.40;3.00;;;16.20;50.50;;;;;;6244034;23;20001;-79
2021/05/03 03:17:04;;;;;;;4.45;2.67;;;16.20;50.50;;;;;;6244186;23;20000;-79
2021/05/03 03:19:31;;;;;;;4.65;2.83;;;16.20;50.40;;;;;;6243794;23;20013;-80
2021/05/03 03:21:56;;;;;;;7.25;3.30;;;16.20;50.50;;;;;;6243800;23;20079;-77
2021/05/03 03:24:22;;;;;;;4.35;2.78;;;16.20;50.60;;;;;;6244123;23;20417;-79
2021/05/03 03:26:48;;;;;;;4.35;2.65;;;16.20;50.50;;;;;;6243952;23;20015;-78
2021/05/03 03:29:13;;;;;;;5.07;3.33;;;16.10;50.50;;;;;;6244171;23;20087;-79
2021/05/03 03:31:39;;;;;;;4.45;2.80;;;16.10;50.40;;;;;;6243703;23;19996;-79
2021/05/03 03:34:05;;;;;;;6.57;3.10;;;16.20;50.60;;;;;;6243774;23;20036;-79
2021/05/03 03:36:30;;;;;;;5.18;3.17;;;16.10;50.50;;;;;;6244020;23;20011;-79
2021/05/03 03:38:56;;;;;;;4.82;2.50;;;16.20;50.60;;;;;;6243930;23;20046;-79
2021/05/03 03:41:22;;;;;;;4.18;2.80;;;16.10;50.50;;;;;;6244126;23;20381;-78
2021/05/03 03:43:47;;;;;;;6.53;3.25;;;16.10;50.60;;;;;;6244297;23;20425;-79
2021/05/03 03:46:13;;;;;;;5.13;2.97;;;16.10;50.50;;;;;;6245963;23;20023;-80
2021/05/03 03:48:39;;;;;;;3.90;2.67;;;16.10;50.60;;;;;;6245488;23;20012;-79
2021/05/03 03:51:05;;;;;;;5.13;2.88;;;16.10;50.60;;;;;;6245808;23;20007;-79
2021/05/03 03:53:31;;;;;;;4.47;3.28;;;16.10;50.60;;;;;;6245739;23;20383;-78
2021/05/03 03:55:57;;;;;;;4.25;3.20;;;16.00;50.60;;;;;;6244049;23;20087;-79
2021/05/03 03:58:22;;;;;;;6.00;3.38;;;16.00;50.70;;;;;;6245467;23;20085;-78
2021/05/03 04:00:48;;;;;;;6.43;2.80;;;16.10;50.70;;;;;;6246106;23;20067;-79
2021/05/03 04:03:14;;;;;;;5.03;3.05;;;16.00;50.70;;;;;;6245843;23;20000;-77
2021/05/03 04:10:52;;;;;;;4.72;2.88;;;16.00;50.70;;;;;;6245914;23;20008;-77
2021/05/03 04:21:26;;;;;;;3.83;2.67;;;16.00;50.70;;;;;;6245389;23;20011;-78
2021/05/03 04:26:21;;;;;;;3.78;2.50;;;16.00;50.70;;;;;;6245723;23;20008;-77
2021/05/03 04:28:50;;;;;;;4.25;2.67;;;15.90;50.70;;;;;;6245302;23;20012;-77
2021/05/03 04:31:17;;;;;;;4.25;3.00;;;15.90;50.70;;;;;;6245800;23;20004;-79
2021/05/03 04:33:43;;;;;;;4.60;2.63;;;15.90;50.70;;;;;;6245589;23;20348;-78
2021/05/03 04:36:09;;;;;;;4.75;3.03;;;15.90;50.70;;;;;;6243630;23;20373;-77
2021/05/03 04:38:35;;;;;;;4.93;3.13;;;15.90;50.70;;;;;;6245076;23;20027;-78
2021/05/03 04:41:00;;;;;;;4.00;2.83;;;15.90;50.80;;;;;;6245111;23;20000;-78
2021/05/03 04:43:26;;;;;;;4.07;2.50;;;15.90;50.80;;;;;;6243241;23;20012;-77
2021/05/03 04:45:52;;;;;;;5.43;2.92;;;15.90;50.70;;;;;;6245331;23;20004;-78
2021/05/03 04:48:18;;;;;;;3.33;2.55;;;15.90;50.80;;;;;;6243696;23;20004;-78
2021/05/03 04:50:44;;;;;;;3.78;2.63;;;15.90;50.80;;;;;;6245018;23;20004;-79
2021/05/03 04:53:10;;;;;;;4.82;2.63;;;15.90;50.80;;;;;;6243256;23;20008;-78
2021/05/03 04:55:36;;;;;;;4.03;2.97;;;15.90;50.70;;;;;;6244700;23;20007;-79
2021/05/03 04:58:02;;;;;;;3.53;2.70;;;15.90;50.80;;;;;;6245043;23;20004;-79
2021/05/03 05:00:27;;;;;;;5.20;2.95;;;15.90;50.80;;;;;;6245006;23;20071;-79
2021/05/03 05:02:53;;;;;;;4.40;2.83;;;15.90;50.80;;;;;;6244827;23;20042;-78
2021/05/03 05:05:19;;;;;;;3.83;2.80;;;15.80;50.70;;;;;;6244030;23;20063;-81
2021/05/03 05:07:44;;;;;;;4.40;2.83;;;15.80;50.70;;;;;;6242994;23;20440;-78
2021/05/03 05:10:12;;;;;;;5.35;3.13;;;15.90;50.70;;;;;;6244743;23;20015;-80
2021/05/03 05:12:37;;;;;;;3.38;2.50;;;15.80;50.70;;;;;;6244581;23;20000;-81
2021/05/03 05:15:05;;;;;;;6.18;3.38;;;15.80;50.70;;;;;;6244947;23;20023;-80
2021/05/03 05:17:31;;;;;;;4.95;3.30;;;15.80;50.70;;;;;;6244905;23;20004;-80
2021/05/03 05:19:58;;;;;;;4.35;2.83;;;15.80;50.70;;;;;;6244723;23;20000;-80
2021/05/03 05:22:24;;;;;;;5.43;3.30;;;15.80;50.80;;;;;;6244619;23;20000;-79
2021/05/03 05:24:50;;;;;;;5.32;3.50;;;15.80;50.70;;;;;;6244840;23;20024;-81
2021/05/03 05:27:15;;;;;;;5.07;2.80;;;15.80;50.70;;;;;;6244719;23;20035;-79
2021/05/03 05:29:41;;;;;;;4.00;2.90;;;15.70;50.80;;;;;;6244694;23;20038;-80
2021/05/03 05:32:07;;;;;;;4.88;2.95;;;15.70;50.70;;;;;;6244520;23;20007;-79
2021/05/03 05:34:32;;;;;;;4.47;3.03;;;15.70;50.80;;;;;;6244497;23;20007;-78
2021/05/03 05:36:58;;;;;;;5.13;2.97;;;15.70;50.80;;;;;;6244401;23;20039;-79
2021/05/03 05:39:24;;;;;;;5.53;3.30;;;15.70;50.80;;;;;;6244430;23;20361;-77
2021/05/03 05:41:50;;;;;;;6.30;3.70;;;15.70;50.80;;;;;;6245027;23;20003;-78
2021/05/03 05:44:15;;;;;;;3.40;2.72;;;15.70;50.80;;;;;;6244435;23;20440;-77
2021/05/03 05:46:43;;;;;;;3.97;2.90;;;15.70;50.80;;;;;;6244294;22;20008;-78
2021/05/03 05:49:09;;;;;;;5.65;3.33;;;15.70;50.80;;;;;;6244193;23;20018;-78
2021/05/03 05:51:34;;;;;;;4.18;2.75;;;15.70;50.80;;;;;;6244337;23;20023;-79
2021/05/03 05:54:00;;;;;;;4.10;2.85;;;15.70;50.80;;;;;;6244402;23;20000;-77
2021/05/03 05:56:26;;;;;;;3.95;2.60;;;15.70;50.80;;;;;;6244517;23;20003;-76
2021/05/03 05:58:51;;;;;;;3.80;2.80;;;15.70;50.80;;;;;;6243147;23;20441;-79
2021/05/03 06:01:17;;;;;;;4.45;2.67;;;15.70;50.90;;;;;;6244487;23;20003;-81
2021/05/03 06:03:43;;;;;;;4.68;2.90;;;15.70;50.80;;;;;;6244354;23;20000;-80
2021/05/03 06:06:11;;;;;;;5.05;3.15;;;15.70;50.90;;;;;;6244260;23;20385;-85
2021/05/03 06:08:37;;;;;;;4.32;2.92;;;15.70;50.90;;;;;;6242492;23;20014;-83
2021/05/03 06:11:03;;;;;;;3.88;2.78;;;15.70;51.10;;;;;;6243117;23;20004;-80
2021/05/03 06:13:29;;;;;;;4.25;2.60;;;15.70;51.40;;;;;;6241426;23;20011;-84
2021/05/03 06:15:55;;;;;;;5.35;3.03;;;15.80;51.10;;;;;;6243297;23;20050;-80
2021/05/03 06:18:22;;;;;;;5.75;2.95;;;15.90;50.80;;;;;;6243735;23;20015;-81
2021/05/03 06:20:48;;;;;;;5.40;3.20;;;16.00;50.70;;;;;;6244157;23;20000;-84
2021/05/03 06:23:13;;;;;;;6.53;3.28;;;16.10;50.80;;;;;;6241364;23;20380;-77
2021/05/03 06:25:40;;;;;;;8.15;3.20;;;16.20;50.80;;;;;;6242812;23;20012;-81
2021/05/03 06:28:07;;;;;;;4.38;2.88;;;16.30;50.80;;;;;;6242667;23;20004;-78
2021/05/03 06:30:33;;;;;;;10.65;3.55;;;16.40;51.00;;;;;;6243708;23;20075;-83
2021/05/03 06:32:58;;;;;;;5.95;3.60;;;16.40;51.00;;;;;;6243926;23;20000;-82
2021/05/03 06:35:24;;;;;;;6.18;3.35;;;16.50;51.10;;;;;;6244411;23;20083;-81
2021/05/03 06:37:51;;;;;;;4.80;3.10;;;16.50;51.10;;;;;;6243061;22;20364;-80
2021/05/03 06:40:17;;;;;;;3.97;3.10;;;16.60;51.80;;;;;;6244134;23;20381;-81
2021/05/03 06:42:43;;;;;;;5.05;3.67;;;16.60;51.30;;;;;;6244075;23;20000;-79
2021/05/03 06:45:10;;;;;;;8.35;3.88;;;16.70;51.30;;;;;;6244109;23;20106;-83
2021/05/03 06:47:37;;;;;;;8.50;3.83;;;16.70;51.20;;;;;;6243888;23;20008;-79
2021/05/03 06:50:07;;;;;;;7.20;3.60;;;16.80;51.10;;;;;;6242478;23;20008;-81
2021/05/03 06:52:33;;;;;;;5.93;3.53;;;16.80;51.00;;;;;;6243815;23;20000;-83
2021/05/03 06:54:59;;;;;;;6.60;3.20;;;16.90;50.90;;;;;;6242235;23;20004;-79
2021/05/03 06:57:25;;;;;;;6.05;3.47;;;16.90;50.90;;;;;;6244256;23;20071;-81
2021/05/03 06:59:51;;;;;;;6.57;3.80;;;17.00;51.10;;;;;;6243197;23;20437;-79
2021/05/03 07:02:17;;;;;;;8.13;3.95;;;17.10;51.00;;;;;;6244274;23;20000;-82
2021/05/03 07:04:42;;;;;;;6.50;3.60;;;17.20;51.20;;;;;;6242232;23;20011;-82
2021/05/03 07:07:08;;;;;;;11.10;3.65;;;17.20;50.90;;;;;;6242432;23;20004;-81
2021/05/03 07:09:34;;;;;;;5.45;3.58;;;17.20;50.90;;;;;;6237883;23;20013;-76
2021/05/03 07:12:07;;;;;;;6.10;3.33;;;17.30;50.80;;;;;;6242965;23;20007;-75
2021/05/03 07:14:34;;;;;;;6.68;3.65;;;17.40;50.90;;;;;;6243447;23;20004;-78
2021/05/03 07:17:01;;;;;;;5.55;3.45;;;17.40;50.80;;;;;;6243687;23;19996;-81
2021/05/03 07:19:26;;;;;;;7.60;3.15;;;17.50;50.90;;;;;;6244741;23;20039;-80
2021/05/03 07:21:52;;;;;;;4.75;3.28;;;17.60;51.10;;;;;;6245350;23;20000;-80
2021/05/03 07:24:18;;;;;;;7.03;3.38;;;17.60;50.90;;;;;;6245450;23;20004;-81
2021/05/03 07:26:43;;;;;;;4.35;3.10;;;17.70;51.10;;;;;;6245472;23;20019;-78
2021/05/03 07:29:09;;;;;;;4.95;2.70;;;17.80;51.10;;;;;;6244171;23;20008;-81
2021/05/03 07:31:35;;;;;;;3.67;2.58;;;17.80;51.10;;;;;;6245032;23;19997;-79
2021/05/03 07:34:00;;;;;;;4.43;2.63;;;18.00;50.80;;;;;;6245045;23;20016;-78
2021/05/03 07:36:26;;;;;;;4.03;2.55;;;18.00;50.70;;;;;;6245694;23;20007;-79
2021/05/03 07:38:52;;;;;;;10.02;2.67;;;18.00;50.80;;;;;;6245726;23;20340;-83
2021/05/03 07:41:18;;;;;;;7.05;2.70;;;18.10;50.70;;;;;;6245353;23;19996;-84
2021/05/03 07:43:44;;;;;;;10.38;2.83;;;18.10;51.10;;;;;;6244965;23;20011;-79
2021/05/03 07:46:10;;;;;;;6.03;2.60;;;18.20;51.30;;;;;;6244574;23;20004;-85
2021/05/03 07:48:35;;;;;;;8.63;2.55;;;18.20;50.50;;;;;;6243077;23;20012;-79
2021/05/03 07:51:01;;;;;;;3.97;2.15;;;18.30;50.50;;;;;;6245093;23;20008;-82
2021/05/03 07:53:27;;;;;;;7.47;2.70;;;18.30;50.80;;;;;;6243721;23;20016;-83
2021/05/03 07:55:52;;;;;;;5.07;3.42;;;18.40;50.70;;;;;;6245113;23;20071;-84
2021/05/03 07:58:18;;;;;;;5.28;3.00;;;18.40;50.50;;;;;;6244887;23;20022;-84
2021/05/03 08:00:43;;;;;;;4.63;2.58;;;18.40;50.40;;;;;;6244913;23;19997;-81
2021/05/03 08:03:09;;;;;;;5.22;2.50;;;18.50;50.30;;;;;;6244824;23;20046;-82
2021/05/03 08:05:35;;;;;;;7.57;2.78;;;18.50;50.60;;;;;;6244956;23;19996;-85
2021/05/03 08:08:01;;;;;;;4.43;2.17;;;18.60;51.80;;;;;;6243787;23;20019;-80
2021/05/03 08:10:28;;;;;;;8.40;2.53;;;18.70;51.90;;;;;;6246789;23;20091;-81
2021/05/03 08:12:53;;;;;;;4.43;2.92;;;18.80;51.30;;;;;;6245553;23;20003;-77
2021/05/03 08:15:22;;;;;;;4.45;2.53;;;18.90;51.80;;;;;;6244745;23;20531;-76
2021/05/03 08:17:48;;;;;;;6.10;2.90;;;18.90;50.80;;;;;;6244810;23;20001;-74
2021/05/03 08:20:15;;;;;;;6.03;3.17;;;18.90;50.50;;;;;;6244950;23;20038;-85
2021/05/03 08:22:41;;;;;;;9.95;3.50;;;18.90;51.00;;;;;;6245088;23;20074;-78
2021/05/03 08:25:08;;;;;;;12.70;3.42;;;19.00;51.30;;;;;;6244834;23;20307;-87
2021/05/03 08:27:35;;;;;;;9.35;3.15;;;19.00;50.80;;;;;;6244610;23;20004;-83
2021/05/03 08:30:01;;;;;;;8.15;2.78;;;19.00;50.80;;;;;;6244419;23;20198;-82
2021/05/03 08:32:26;;;;;;;4.00;2.20;;;19.10;50.80;;;;;;6245001;23;20000;-86
2021/05/03 08:34:52;;;;;;;4.25;2.60;;;19.10;50.70;;;;;;6245107;23;20086;-87
2021/05/03 08:37:18;;;;;;;4.45;2.47;;;19.10;50.50;;;;;;6245239;23;20329;-89
2021/05/03 08:39:44;;;;;;;4.38;2.60;;;19.00;50.50;;;;;;6245554;23;20000;-88
2021/05/03 08:42:11;;;;;;;4.22;2.55;;;19.00;50.50;;;;;;6245284;23;20001;-81
2021/05/03 08:44:36;;;;;;;4.38;2.50;;;19.10;50.40;;;;;;6245517;23;20441;-87
2021/05/03 08:47:03;;;;;;;2.85;2.17;;;19.10;50.30;;;;;;6244532;23;20008;-86
2021/05/03 08:52:12;;;;;;;5.05;2.83;;;19.10;50.80;;;;;;6245845;23;20087;-87
2021/05/03 08:54:44;;;;;;;3.53;2.20;;;19.20;50.30;;;;;;6245182;23;20023;-84
2021/05/03 08:57:12;;;;;;;6.13;2.25;;;19.20;50.00;;;;;;6244669;23;20012;-83
2021/05/03 08:59:39;;;;;;;3.60;2.33;;;19.20;49.90;;;;;;6244040;23;19996;-79
2021/05/03 09:02:06;;;;;;;2.72;1.77;;;19.30;49.80;;;;;;6244470;23;20345;-84
2021/05/03 09:04:33;;;;;;;5.10;2.30;;;19.30;49.70;;;;;;6242960;23;20339;-83
2021/05/03 09:07:04;;;;;;;6.20;1.88;;;19.40;49.60;;;;;;6244776;23;20076;-87
2021/05/03 09:09:38;;;;;;;6.95;2.00;;;19.30;49.50;;;;;;6242943;23;20012;-85
2021/05/03 09:12:13;;;;;;;3.08;1.92;;;19.40;49.50;;;;;;6244293;23;20000;-83
2021/05/03 09:14:49;;;;;;;5.80;2.30;;;19.50;49.50;;;;;;6244366;23;20536;-86
2021/05/03 09:17:22;;;;;;;;;;;19.50;49.30;;;;;;6244883;23;19996;-88
2021/05/03 09:19:47;;;;;;;4.03;1.92;;;19.50;49.30;;;;;;6244415;22;19900;-89
2021/05/03 09:22:24;;;;;;;1.95;1.40;;;19.50;49.20;;;;;;6245026;23;20007;-88
2021/05/03 09:24:50;;;;;;;4.20;2.35;;;19.60;49.20;;;;;;6244995;23;20008;-88
2021/05/03 09:27:20;;;;;;;4.03;1.70;;;19.60;49.10;;;;;;6244511;23;20039;-86
2021/05/03 09:29:47;;;;;;;3.90;2.05;;;19.60;49.00;;;;;;6244045;23;20012;-85
2021/05/03 09:32:21;;;;;;;4.95;1.60;;;19.60;49.10;;;;;;6244668;23;20049;-84
2021/05/03 09:34:48;;;;;;;2.53;1.65;;;19.60;49.00;;;;;;6243130;23;20429;-85
2021/05/03 09:37:30;;;;;;;2.45;1.40;;;19.70;48.90;;;;;;6244190;23;20003;-80
2021/05/03 09:40:02;;;;;;;4.25;1.75;;;19.70;48.80;;;;;;6244129;23;20034;-83
2021/05/03 09:42:42;;;;;;;3.70;1.48;;;19.80;48.70;;;;;;6243770;23;20012;-83
2021/05/03 09:45:10;;;;;;;4.22;1.90;;;19.80;48.50;;;;;;6243721;23;20008;-80
2021/05/03 09:47:37;;;;;;;2.40;1.55;;;19.90;48.40;;;;;;6243631;23;20022;-80
2021/05/03 09:50:11;;;;;;;5.82;1.40;;;20.00;48.40;;;;;;6243772;23;20016;-77
2021/05/03 09:52:37;;;;;;;2.72;1.60;;;20.00;48.20;;;;;;6243698;23;20798;-79
2021/05/03 09:55:23;;;;;;;3.13;1.20;;;20.10;48.10;;;;;;6243953;23;20004;-78
2021/05/03 09:58:05;;;;;;;;;;;20.10;48.20;;;;;;6244188;23;20000;-78
2021/05/03 10:00:36;;;;;;;2.83;0.88;;;20.20;48.20;;;;;;6244138;22;19957;-78
2021/05/03 10:03:34;;;;;;;3.80;1.10;;;20.30;48.20;;;;;;6243821;23;20000;-75
2021/05/03 10:06:00;;;;;;;2.47;1.23;;;20.40;48.40;;;;;;6244053;22;20000;-76
2021/05/03 10:08:26;;;;;;;3.03;0.88;;;20.40;48.30;;;;;;6241686;23;20079;-75
2021/05/03 10:10:55;;;;;;;2.15;0.80;;;20.40;48.00;;;;;;6243833;23;20375;-76
2021/05/03 10:13:21;;;;;;;3.05;1.20;;;20.50;48.00;;;;;;6243702;23;19996;-75
2021/05/03 10:15:47;;;;;;;2.70;1.45;;;20.60;47.70;;;;;;6243344;23;20452;-76
2021/05/03 10:18:20;;;;;;;2.20;1.23;;;20.60;47.80;;;;;;6243206;23;20046;-74
2021/05/03 10:20:47;;;;;;;5.10;1.45;;;20.60;47.70;;;;;;6243385;23;20425;-74
2021/05/03 10:23:13;;;;;;;3.35;1.58;;;20.60;48.00;;;;;;6243470;23;20083;-74
2021/05/03 10:25:41;;;;;;;5.00;1.23;;;20.50;47.80;;;;;;6243291;23;20007;-73
2021/05/03 10:28:07;;;;;;;2.67;1.30;;;20.60;48.20;;;;;;6242712;23;20005;-74
2021/05/03 10:30:40;;;;;;;1.65;0.90;;;20.60;48.30;;;;;;6243676;23;20310;-73
2021/05/03 10:33:11;;;;;;;3.25;1.08;;;20.50;48.50;;;;;;6243421;23;20000;-73
2021/05/03 10:35:48;;;;;;;3.63;1.02;;;20.50;48.90;;;;;;6243411;23;20019;-73
2021/05/03 10:38:28;;;;;;;2.58;1.50;;;20.50;48.60;;;;;;6243343;23;20005;-79
2021/05/03 10:40:55;;;;;;;3.80;1.33;;;20.50;49.30;;;;;;6243596;23;20004;-79
2021/05/03 10:43:26;;;;;;;2.22;1.20;;;20.40;49.20;;;;;;6243428;23;20432;-81
2021/05/03 10:48:39;;;;;;;6.25;1.30;;;20.30;48.60;;;;;;6243794;23;20012;-76
2021/05/03 10:51:09;;;;;;;5.97;1.20;;;20.30;48.80;;;;;;6243273;23;20012;-72
2021/05/03 10:53:39;;;;;;;9.07;1.65;;;20.30;48.70;;;;;;6242111;23;20154;-76
2021/05/03 10:56:09;;;;;;;5.32;1.52;;;20.10;49.00;;;;;;6246290;23;20010;-77
2021/05/03 10:59:10;;;;;;;2.50;1.50;;;20.20;49.00;;;;;;6246462;23;20391;-75
2021/05/03 11:01:54;;;;;;;2.80;1.58;;;20.20;48.80;;;;;;6213920;23;20444;-78
2021/05/03 11:04:23;;;;;;;4.95;1.10;;;20.20;48.70;;;;;;6246733;23;20000;-79
2021/05/03 11:06:48;;;;;;;3.47;1.10;;;20.20;48.70;;;;;;6246681;23;20004;-78
2021/05/03 11:12:00;;;;;;;2.13;1.10;;;20.20;48.30;;;;;;6246513;23;20008;-80
2021/05/03 11:14:29;;;;;;;3.25;1.20;;;20.20;48.20;;;;;;6246382;23;20004;-80
2021/05/03 11:17:01;;;;;;;3.90;1.63;;;20.10;48.10;;;;;;6246381;23;20049;-78
2021/05/03 11:22:21;;;;;;;4.10;1.45;;;20.20;48.30;;;;;;6246515;23;20341;-80
2021/05/03 11:27:44;;;;;;;42.97;8.82;;;20.10;48.30;;;;;;6245472;23;20016;-76
2021/05/03 11:30:26;;;;;;;14.27;3.88;;;20.10;49.50;;;;;;6246515;23;20016;-78
2021/05/03 11:32:54;;;;;;;18.65;3.45;;;20.20;49.60;;;;;;6244952;23;20008;-78
2021/05/03 11:35:45;;;;;;;13.48;3.58;;;20.20;48.60;;;;;;6244696;23;20013;-73
2021/05/03 11:46:54;;;;;;;22.30;5.45;;;20.20;49.80;;;;;;6245096;23;20031;-72
2021/05/03 11:49:14;;;;;;;24.65;6.05;;;20.10;49.80;;;;;;6242647;23;20016;-73
2021/05/03 11:51:52;;;;;;;21.58;7.03;;;20.00;50.60;;;;;;6246457;23;19996;-76
2021/05/03 11:54:43;;;;;;;23.10;6.00;;;20.00;50.60;;;;;;6245852;23;20004;-73
2021/05/03 11:57:18;;;;;;;15.60;5.40;;;20.00;49.80;;;;;;6245526;23;20004;-73
2021/05/03 11:59:45;;;;;;;16.90;5.00;;;20.10;49.80;;;;;;6245097;23;20011;-74
2021/05/03 12:02:12;;;;;;;21.08;4.40;;;20.00;50.00;;;;;;6244744;23;20004;-74
2021/05/03 12:04:50;;;;;;;12.30;3.92;;;20.00;49.40;;;;;;6245121;23;20075;-79
2021/05/03 12:07:23;;;;;;;14.57;4.13;;;20.00;49.10;;;;;;6244115;23;20004;-72
2021/05/03 12:10:08;;;;;;;12.73;4.45;;;20.00;49.20;;;;;;6243730;23;20065;-74
2021/05/03 12:13:01;;;;;;;18.15;4.40;;;20.00;49.30;;;;;;6243878;23;20004;-76
2021/05/03 12:15:28;;;;;;;12.20;3.85;;;20.00;50.00;;;;;;6239706;23;20015;-77
2021/05/03 12:17:57;;;;;;;11.73;3.78;;;20.00;49.40;;;;;;6244784;23;20004;-75
2021/05/03 12:20:25;;;;;;;12.52;3.17;;;20.00;49.20;;;;;;6244577;23;20007;-76
2021/05/03 12:23:01;;;;;;;11.57;3.42;;;19.90;49.20;;;;;;6243436;23;20008;-76
2021/05/03 12:25:30;;;;;;;11.43;3.20;;;19.90;49.30;;;;;;6243497;22;20062;-76
2021/05/03 12:27:56;;;;;;;8.68;2.35;;;19.90;49.20;;;;;;6243975;23;20008;-74
2021/05/03 12:30:24;;;;;;;12.35;2.58;;;20.00;49.00;;;;;;6243791;23;20516;-75
2021/05/03 12:32:50;;;;;;;9.82;2.90;;;20.00;48.70;;;;;;6244349;23;20030;-75
2021/05/03 12:35:19;;;;;;;12.23;2.60;;;20.00;48.50;;;;;;6244627;23;20008;-74
2021/05/03 12:37:45;;;;;;;7.30;2.80;;;20.00;48.20;;;;;;6244293;23;20000;-74
2021/05/03 12:40:11;;;;;;;8.65;3.20;;;20.10;47.90;;;;;;6241729;23;20086;-74
2021/05/03 12:42:53;;;;;;;8.35;2.65;;;20.10;47.90;;;;;;6244176;23;20067;-76
2021/05/03 13:04:21;;;;;;;5.78;2.30;;;19.80;48.20;;;;;;6244748;23;20004;-80
2021/05/03 13:09:47;;;;;;;6.32;1.85;;;19.80;48.30;;;;;;6244415;23;20016;-79
2021/05/03 13:29:01;;;;;;;4.63;1.60;;;19.70;48.10;;;;;;6243542;23;20012;-77
2021/05/03 13:31:31;;;;;;;6.32;1.75;;;19.60;48.40;;;;;;6243812;23;20000;-83
2021/05/03 13:33:58;;;;;;;3.92;1.40;;;19.60;48.40;;;;;;6244000;23;20004;-84
2021/05/03 13:36:25;;;;;;;2.83;1.30;;;19.60;48.20;;;;;;6243977;23;19997;-80
2021/05/03 13:38:51;;;;;;;6.65;1.50;;;19.60;48.30;;;;;;6243901;23;20209;-80
2021/05/03 13:41:17;;;;;;;3.78;1.42;;;19.60;48.40;;;;;;6244104;23;20000;-80
2021/05/03 13:43:42;;;;;;;3.25;1.17;;;19.60;48.20;;;;;;6243847;23;20318;-78
2021/05/03 13:46:08;;;;;;;4.65;1.10;;;19.70;48.00;;;;;;6242618;23;20433;-77
2021/05/03 13:48:34;;;;;;;3.90;1.42;;;19.70;47.80;;;;;;6242188;23;20344;-81
2021/05/03 13:51:00;;;;;;;3.30;1.38;;;19.70;48.30;;;;;;6242709;23;20008;-80
2021/05/03 13:53:26;;;;;;;3.38;1.15;;;19.70;47.60;;;;;;6242696;23;20082;-79
2021/05/03 13:55:54;;;;;;;5.45;1.42;;;19.70;47.70;;;;;;6244031;23;19997;-80
2021/05/03 13:58:20;;;;;;;3.80;1.60;;;19.70;47.60;;;;;;6242158;23;20050;-81
2021/05/03 14:00:45;;;;;;;3.35;1.10;;;19.70;47.60;;;;;;6241953;23;20011;-80
2021/05/03 14:03:11;;;;;;;3.50;1.13;;;19.70;47.50;;;;;;6242270;23;20004;-83
2021/05/03 14:05:39;;;;;;;2.15;1.23;;;19.80;47.40;;;;;;6242513;23;20008;-82